sensor_id;sensor_type;location;lat;lon;timestamp;temperature;humidity
67186;HTU21D;54116;53.518;49.398;2023-03-01T00:02:20;-4.53;116.09
67186;HTU21D;54116;53.518;49.398;2023-03-01T00:04:47;-4.52;116.39
67186;HTU21D;54116;53.518;49.398;2023-03-01T00:07:13;-4.50;116.14
67186;HTU21D;54116;53.518;49.398;2023-03-01T00:09:40;-4.45;116.56
67186;HTU21D;54116;53.518;49.398;2023-03-01T00:12:06;-4.45;115.81
67186;HTU21D;54116;53.518;49.398;2023-03-01T00:14:32;-4.46;116.32
67186;HTU21D;54116;53.518;49.398;2023-03-01T00:16:59;-4.42;116.02
67186;HTU21D;54116;53.518;49.398;2023-03-01T00:19:25;-4.41;117.26
67186;HTU21D;54116;53.518;49.398;2023-03-01T00:21:51;-4.44;116.31
67186;HTU21D;54116;53.518;49.398;2023-03-01T00:24:17;-4.44;117.13
67186;HTU21D;54116;53.518;49.398;2023-03-01T00:26:44;-4.48;117.30
67186;HTU21D;54116;53.518;49.398;2023-03-01T00:29:10;-4.48;116.38
67186;HTU21D;54116;53.518;49.398;2023-03-01T00:31:38;-4.45;116.68
67186;HTU21D;54116;53.518;49.398;2023-03-01T00:34:05;-4.45;117.06
67186;HTU21D;54116;53.518;49.398;2023-03-01T00:36:50;-4.45;117.12
67186;HTU21D;54116;53.518;49.398;2023-03-01T00:39:16;-4.45;116.76
67186;HTU21D;54116;53.518;49.398;2023-03-01T00:41:42;-4.48;116.77
67186;HTU21D;54116;53.518;49.398;2023-03-01T00:44:10;-4.48;117.05
67186;HTU21D;54116;53.518;49.398;2023-03-01T00:46:37;-4.48;117.26
67186;HTU21D;54116;53.518;49.398;2023-03-01T00:49:04;-4.46;117.12
67186;HTU21D;54116;53.518;49.398;2023-03-01T00:51:30;-4.44;117.84
67186;HTU21D;54116;53.518;49.398;2023-03-01T00:54:01;-4.43;117.09
67186;HTU21D;54116;53.518;49.398;2023-03-01T00:56:35;-4.40;117.05
67186;HTU21D;54116;53.518;49.398;2023-03-01T00:59:01;-4.38;117.06
67186;HTU21D;54116;53.518;49.398;2023-03-01T01:01:28;-4.41;117.12
67186;HTU21D;54116;53.518;49.398;2023-03-01T01:04:00;-4.39;117.40
67186;HTU21D;54116;53.518;49.398;2023-03-01T01:06:31;-4.38;117.90
67186;HTU21D;54116;53.518;49.398;2023-03-01T01:08:58;-4.38;117.39
67186;HTU21D;54116;53.518;49.398;2023-03-01T01:11:28;-4.37;117.46
67186;HTU21D;54116;53.518;49.398;2023-03-01T01:13:55;-4.37;116.99
67186;HTU21D;54116;53.518;49.398;2023-03-01T01:16:24;-4.38;117.13
67186;HTU21D;54116;53.518;49.398;2023-03-01T01:18:52;-4.39;117.24
67186;HTU21D;54116;53.518;49.398;2023-03-01T01:21:20;-4.34;116.63
67186;HTU21D;54116;53.518;49.398;2023-03-01T01:23:47;-4.35;116.62
67186;HTU21D;54116;53.518;49.398;2023-03-01T01:26:17;-4.36;117.60
67186;HTU21D;54116;53.518;49.398;2023-03-01T01:28:49;-4.35;117.33
67186;HTU21D;54116;53.518;49.398;2023-03-01T01:31:16;-4.32;117.36
67186;HTU21D;54116;53.518;49.398;2023-03-01T01:33:43;-4.34;117.78
67186;HTU21D;54116;53.518;49.398;2023-03-01T01:36:09;-4.35;118.14
67186;HTU21D;54116;53.518;49.398;2023-03-01T01:38:37;-4.36;117.95
67186;HTU21D;54116;53.518;49.398;2023-03-01T01:41:06;-4.37;117.76
67186;HTU21D;54116;53.518;49.398;2023-03-01T01:43:43;-4.35;117.59
67186;HTU21D;54116;53.518;49.398;2023-03-01T01:48:46;-4.34;117.74
67186;HTU21D;54116;53.518;49.398;2023-03-01T01:51:17;-4.34;117.82
67186;HTU21D;54116;53.518;49.398;2023-03-01T01:53:47;-4.35;117.67
67186;HTU21D;54116;53.518;49.398;2023-03-01T01:56:17;-4.35;118.06
67186;HTU21D;54116;53.518;49.398;2023-03-01T01:58:44;-4.36;116.44
67186;HTU21D;54116;53.518;49.398;2023-03-01T02:01:13;-4.32;116.12
67186;HTU21D;54116;53.518;49.398;2023-03-01T02:03:42;-4.35;115.64
67186;HTU21D;54116;53.518;49.398;2023-03-01T02:08:38;-4.30;115.37
67186;HTU21D;54116;53.518;49.398;2023-03-01T02:11:06;-4.32;116.59
67186;HTU21D;54116;53.518;49.398;2023-03-01T02:13:34;-4.30;117.41
67186;HTU21D;54116;53.518;49.398;2023-03-01T02:16:05;-4.29;115.92
67186;HTU21D;54116;53.518;49.398;2023-03-01T02:18:34;-4.29;115.69
67186;HTU21D;54116;53.518;49.398;2023-03-01T02:21:17;-4.26;115.41
67186;HTU21D;54116;53.518;49.398;2023-03-01T02:23:47;-4.27;115.37
67186;HTU21D;54116;53.518;49.398;2023-03-01T02:26:48;-4.27;115.37
67186;HTU21D;54116;53.518;49.398;2023-03-01T02:29:06;-4.27;115.31
67186;HTU21D;54116;53.518;49.398;2023-03-01T02:31:32;-4.27;115.67
67186;HTU21D;54116;53.518;49.398;2023-03-01T02:34:21;-4.25;115.82
67186;HTU21D;54116;53.518;49.398;2023-03-01T02:36:55;-4.26;115.02
67186;HTU21D;54116;53.518;49.398;2023-03-01T02:39:26;-4.26;115.22
67186;HTU21D;54116;53.518;49.398;2023-03-01T02:41:56;-4.26;114.85
67186;HTU21D;54116;53.518;49.398;2023-03-01T02:44:23;-4.27;115.11
67186;HTU21D;54116;53.518;49.398;2023-03-01T02:46:53;-4.27;115.68
67186;HTU21D;54116;53.518;49.398;2023-03-01T02:49:26;-4.26;115.89
67186;HTU21D;54116;53.518;49.398;2023-03-01T02:54:53;-4.24;116.52
67186;HTU21D;54116;53.518;49.398;2023-03-01T02:57:23;-4.24;116.34
67186;HTU21D;54116;53.518;49.398;2023-03-01T02:59:51;-4.22;116.87
67186;HTU21D;54116;53.518;49.398;2023-03-01T03:02:25;-4.23;116.09
67186;HTU21D;54116;53.518;49.398;2023-03-01T03:05:26;-4.22;116.15
67186;HTU21D;54116;53.518;49.398;2023-03-01T03:07:53;-4.20;116.32
67186;HTU21D;54116;53.518;49.398;2023-03-01T03:10:25;-4.20;116.49
67186;HTU21D;54116;53.518;49.398;2023-03-01T03:12:54;-4.21;117.12
67186;HTU21D;54116;53.518;49.398;2023-03-01T03:15:22;-4.21;117.34
67186;HTU21D;54116;53.518;49.398;2023-03-01T03:17:49;-4.21;116.96
67186;HTU21D;54116;53.518;49.398;2023-03-01T03:20:17;-4.22;117.09
67186;HTU21D;54116;53.518;49.398;2023-03-01T03:22:49;-4.23;117.37
67186;HTU21D;54116;53.518;49.398;2023-03-01T03:25:16;-4.21;116.82
67186;HTU21D;54116;53.518;49.398;2023-03-01T03:27:46;-4.20;116.75
67186;HTU21D;54116;53.518;49.398;2023-03-01T03:30:19;-4.17;116.55
67186;HTU21D;54116;53.518;49.398;2023-03-01T03:32:47;-4.19;117.99
67186;HTU21D;54116;53.518;49.398;2023-03-01T03:35:24;-4.16;117.95
67186;HTU21D;54116;53.518;49.398;2023-03-01T03:37:52;-4.16;118.02
67186;HTU21D;54116;53.518;49.398;2023-03-01T03:40:38;-4.13;116.99
67186;HTU21D;54116;53.518;49.398;2023-03-01T03:43:06;-4.11;116.65
67186;HTU21D;54116;53.518;49.398;2023-03-01T03:45:33;-4.09;117.00
67186;HTU21D;54116;53.518;49.398;2023-03-01T03:48:00;-4.08;116.82
67186;HTU21D;54116;53.518;49.398;2023-03-01T03:50:26;-4.07;116.77
67186;HTU21D;54116;53.518;49.398;2023-03-01T03:52:52;-4.02;117.02
67186;HTU21D;54116;53.518;49.398;2023-03-01T03:55:19;-4.04;117.18
67186;HTU21D;54116;53.518;49.398;2023-03-01T03:57:49;-4.02;116.31
67186;HTU21D;54116;53.518;49.398;2023-03-01T04:00:19;-3.99;116.76
67186;HTU21D;54116;53.518;49.398;2023-03-01T04:02:46;-3.96;116.52
67186;HTU21D;54116;53.518;49.398;2023-03-01T04:05:17;-3.93;116.83
67186;HTU21D;54116;53.518;49.398;2023-03-01T04:07:44;-3.91;116.67
67186;HTU21D;54116;53.518;49.398;2023-03-01T04:10:13;-3.86;116.82
67186;HTU21D;54116;53.518;49.398;2023-03-01T04:12:39;-3.81;116.06
67186;HTU21D;54116;53.518;49.398;2023-03-01T04:15:07;-3.80;115.87
67186;HTU21D;54116;53.518;49.398;2023-03-01T04:17:42;-3.74;115.57
67186;HTU21D;54116;53.518;49.398;2023-03-01T04:20:10;-3.67;115.00
67186;HTU21D;54116;53.518;49.398;2023-03-01T04:22:38;-3.61;114.83
67186;HTU21D;54116;53.518;49.398;2023-03-01T04:25:04;-3.52;114.71
67186;HTU21D;54116;53.518;49.398;2023-03-01T04:27:34;-3.45;114.67
67186;HTU21D;54116;53.518;49.398;2023-03-01T04:30:00;-3.43;113.41
67186;HTU21D;54116;53.518;49.398;2023-03-01T04:32:27;-3.38;114.01
67186;HTU21D;54116;53.518;49.398;2023-03-01T04:34:53;-3.37;111.78
67186;HTU21D;54116;53.518;49.398;2023-03-01T04:37:19;-3.34;112.37
67186;HTU21D;54116;53.518;49.398;2023-03-01T04:39:45;-3.30;112.85
67186;HTU21D;54116;53.518;49.398;2023-03-01T04:42:11;-3.15;112.44
67186;HTU21D;54116;53.518;49.398;2023-03-01T04:44:37;-3.01;110.71
67186;HTU21D;54116;53.518;49.398;2023-03-01T04:47:03;-2.83;110.87
67186;HTU21D;54116;53.518;49.398;2023-03-01T04:49:29;-2.73;109.27
67186;HTU21D;54116;53.518;49.398;2023-03-01T04:51:57;-2.58;109.07
67186;HTU21D;54116;53.518;49.398;2023-03-01T04:54:31;-2.45;107.42
67186;HTU21D;54116;53.518;49.398;2023-03-01T04:56:58;-2.06;106.78
67186;HTU21D;54116;53.518;49.398;2023-03-01T04:59:25;-1.82;103.44
67186;HTU21D;54116;53.518;49.398;2023-03-01T05:01:52;-1.61;101.55
67186;HTU21D;54116;53.518;49.398;2023-03-01T05:04:22;-1.80;101.99
67186;HTU21D;54116;53.518;49.398;2023-03-01T05:06:49;-2.08;102.88
67186;HTU21D;54116;53.518;49.398;2023-03-01T05:09:15;-2.21;104.98
67186;HTU21D;54116;53.518;49.398;2023-03-01T05:11:41;-2.15;104.97
67186;HTU21D;54116;53.518;49.398;2023-03-01T05:14:08;-2.17;104.21
67186;HTU21D;54116;53.518;49.398;2023-03-01T05:16:35;-2.04;104.24
67186;HTU21D;54116;53.518;49.398;2023-03-01T05:19:02;-1.93;103.91
67186;HTU21D;54116;53.518;49.398;2023-03-01T05:21:38;-1.79;102.36
67186;HTU21D;54116;53.518;49.398;2023-03-01T05:24:23;-1.65;101.91
67186;HTU21D;54116;53.518;49.398;2023-03-01T05:26:50;-1.40;101.39
67186;HTU21D;54116;53.518;49.398;2023-03-01T05:29:19;-1.27;99.77
67186;HTU21D;54116;53.518;49.398;2023-03-01T05:31:55;-1.14;99.38
67186;HTU21D;54116;53.518;49.398;2023-03-01T05:34:26;-1.09;99.31
67186;HTU21D;54116;53.518;49.398;2023-03-01T05:36:53;-1.00;99.45
67186;HTU21D;54116;53.518;49.398;2023-03-01T05:39:29;-0.74;98.67
67186;HTU21D;54116;53.518;49.398;2023-03-01T05:41:57;-0.62;96.41
67186;HTU21D;54116;53.518;49.398;2023-03-01T05:44:24;-0.57;95.82
67186;HTU21D;54116;53.518;49.398;2023-03-01T05:46:51;-0.36;95.86
67186;HTU21D;54116;53.518;49.398;2023-03-01T05:49:18;-0.34;93.08
67186;HTU21D;54116;53.518;49.398;2023-03-01T05:51:48;-0.31;92.43
67186;HTU21D;54116;53.518;49.398;2023-03-01T05:54:15;-0.46;92.46
67186;HTU21D;54116;53.518;49.398;2023-03-01T05:56:41;-0.67;94.68
67186;HTU21D;54116;53.518;49.398;2023-03-01T05:59:08;-0.23;92.99
67186;HTU21D;54116;53.518;49.398;2023-03-01T06:01:34;-0.01;90.04
67186;HTU21D;54116;53.518;49.398;2023-03-01T06:04:01;0.13;87.77
67186;HTU21D;54116;53.518;49.398;2023-03-01T06:06:27;0.39;87.88
67186;HTU21D;54116;53.518;49.398;2023-03-01T06:08:54;0.51;86.64
67186;HTU21D;54116;53.518;49.398;2023-03-01T06:11:20;0.64;87.41
67186;HTU21D;54116;53.518;49.398;2023-03-01T06:13:48;0.48;86.45
67186;HTU21D;54116;53.518;49.398;2023-03-01T06:16:14;0.42;86.65
67186;HTU21D;54116;53.518;49.398;2023-03-01T06:18:40;0.03;84.77
67186;HTU21D;54116;53.518;49.398;2023-03-01T06:21:07;-0.36;90.49
67186;HTU21D;54116;53.518;49.398;2023-03-01T06:23:34;-0.32;89.09
67186;HTU21D;54116;53.518;49.398;2023-03-01T06:26:05;-0.76;89.24
67186;HTU21D;54116;53.518;49.398;2023-03-01T06:28:31;-0.89;93.63
67186;HTU21D;54116;53.518;49.398;2023-03-01T06:30:58;-0.59;90.86
67186;HTU21D;54116;53.518;49.398;2023-03-01T06:33:24;-0.20;88.98
67186;HTU21D;54116;53.518;49.398;2023-03-01T06:35:51;-0.07;87.20
67186;HTU21D;54116;53.518;49.398;2023-03-01T06:38:17;-0.68;89.36
67186;HTU21D;54116;53.518;49.398;2023-03-01T06:40:45;-1.01;91.46
67186;HTU21D;54116;53.518;49.398;2023-03-01T06:43:17;-1.12;90.94
67186;HTU21D;54116;53.518;49.398;2023-03-01T06:45:44;-1.42;94.07
67186;HTU21D;54116;53.518;49.398;2023-03-01T06:48:10;-1.30;92.69
67186;HTU21D;54116;53.518;49.398;2023-03-01T06:50:37;-1.42;93.91
67186;HTU21D;54116;53.518;49.398;2023-03-01T06:53:04;-1.58;92.40
67186;HTU21D;54116;53.518;49.398;2023-03-01T06:55:31;-1.65;95.52
67186;HTU21D;54116;53.518;49.398;2023-03-01T06:57:58;-1.67;94.54
67186;HTU21D;54116;53.518;49.398;2023-03-01T07:00:26;-1.59;97.92
67186;HTU21D;54116;53.518;49.398;2023-03-01T07:02:53;-1.99;101.15
67186;HTU21D;54116;53.518;49.398;2023-03-01T07:05:19;-1.84;95.82
67186;HTU21D;54116;53.518;49.398;2023-03-01T07:07:46;-1.42;94.54
67186;HTU21D;54116;53.518;49.398;2023-03-01T07:10:12;-0.58;89.37
67186;HTU21D;54116;53.518;49.398;2023-03-01T07:12:39;-0.42;85.37
67186;HTU21D;54116;53.518;49.398;2023-03-01T07:15:09;-0.21;87.61
67186;HTU21D;54116;53.518;49.398;2023-03-01T07:17:36;0.07;82.94
67186;HTU21D;54116;53.518;49.398;2023-03-01T07:20:03;-0.08;85.22
67186;HTU21D;54116;53.518;49.398;2023-03-01T07:22:29;-0.30;84.32
67186;HTU21D;54116;53.518;49.398;2023-03-01T07:24:56;-0.42;82.46
67186;HTU21D;54116;53.518;49.398;2023-03-01T07:27:22;-0.58;82.80
67186;HTU21D;54116;53.518;49.398;2023-03-01T07:29:48;-0.15;82.17
67186;HTU21D;54116;53.518;49.398;2023-03-01T07:32:14;-0.27;82.15
67186;HTU21D;54116;53.518;49.398;2023-03-01T07:34:40;0.16;79.17
67186;HTU21D;54116;53.518;49.398;2023-03-01T07:37:07;-0.37;80.29
67186;HTU21D;54116;53.518;49.398;2023-03-01T07:39:33;-0.15;80.58
67186;HTU21D;54116;53.518;49.398;2023-03-01T07:41:59;-0.25;79.74
67186;HTU21D;54116;53.518;49.398;2023-03-01T07:44:25;-0.44;81.43
67186;HTU21D;54116;53.518;49.398;2023-03-01T07:46:52;-0.19;78.55
67186;HTU21D;54116;53.518;49.398;2023-03-01T07:49:22;-0.54;79.56
67186;HTU21D;54116;53.518;49.398;2023-03-01T07:51:48;-0.13;81.78
67186;HTU21D;54116;53.518;49.398;2023-03-01T07:54:15;0.39;75.09
67186;HTU21D;54116;53.518;49.398;2023-03-01T07:56:41;0.62;76.32
67186;HTU21D;54116;53.518;49.398;2023-03-01T07:59:07;1.01;70.00
67186;HTU21D;54116;53.518;49.398;2023-03-01T08:01:33;0.74;70.67
67186;HTU21D;54116;53.518;49.398;2023-03-01T08:04:00;0.91;71.55
67186;HTU21D;54116;53.518;49.398;2023-03-01T08:06:27;0.64;69.33
67186;HTU21D;54116;53.518;49.398;2023-03-01T08:08:54;0.52;72.23
67186;HTU21D;54116;53.518;49.398;2023-03-01T08:11:25;0.18;72.22
67186;HTU21D;54116;53.518;49.398;2023-03-01T08:13:54;-0.54;71.54
67186;HTU21D;54116;53.518;49.398;2023-03-01T08:16:20;-0.90;71.80
67186;HTU21D;54116;53.518;49.398;2023-03-01T08:18:47;-1.17;74.98
67186;HTU21D;54116;53.518;49.398;2023-03-01T08:21:15;-1.28;78.01
67186;HTU21D;54116;53.518;49.398;2023-03-01T08:23:42;-1.06;77.63
67186;HTU21D;54116;53.518;49.398;2023-03-01T08:26:12;-1.12;76.22
67186;HTU21D;54116;53.518;49.398;2023-03-01T08:28:40;-0.96;78.61
67186;HTU21D;54116;53.518;49.398;2023-03-01T08:31:34;-0.23;73.58
67186;HTU21D;54116;53.518;49.398;2023-03-01T08:34:09;-0.39;71.40
67186;HTU21D;54116;53.518;49.398;2023-03-01T08:36:37;-0.86;72.45
67186;HTU21D;54116;53.518;49.398;2023-03-01T08:39:04;-1.02;74.51
67186;HTU21D;54116;53.518;49.398;2023-03-01T08:41:31;-0.91;71.38
67186;HTU21D;54116;53.518;49.398;2023-03-01T08:43:57;-0.77;71.26
67186;HTU21D;54116;53.518;49.398;2023-03-01T08:46:27;-0.75;71.90
67186;HTU21D;54116;53.518;49.398;2023-03-01T08:48:54;-0.85;71.79
67186;HTU21D;54116;53.518;49.398;2023-03-01T08:51:21;-0.46;71.71
67186;HTU21D;54116;53.518;49.398;2023-03-01T08:53:47;-0.69;71.35
67186;HTU21D;54116;53.518;49.398;2023-03-01T08:56:17;-1.15;73.04
67186;HTU21D;54116;53.518;49.398;2023-03-01T08:58:46;-1.16;73.84
67186;HTU21D;54116;53.518;49.398;2023-03-01T09:01:16;-0.67;72.29
67186;HTU21D;54116;53.518;49.398;2023-03-01T09:03:44;-0.55;69.95
67186;HTU21D;54116;53.518;49.398;2023-03-01T09:06:11;0.15;69.27
67186;HTU21D;54116;53.518;49.398;2023-03-01T09:08:43;0.76;67.60
67186;HTU21D;54116;53.518;49.398;2023-03-01T09:11:11;0.03;67.45
67186;HTU21D;54116;53.518;49.398;2023-03-01T09:13:38;-0.43;71.58
67186;HTU21D;54116;53.518;49.398;2023-03-01T09:16:07;-0.72;73.27
67186;HTU21D;54116;53.518;49.398;2023-03-01T09:18:35;-0.22;70.81
67186;HTU21D;54116;53.518;49.398;2023-03-01T09:21:09;-0.44;68.75
67186;HTU21D;54116;53.518;49.398;2023-03-01T09:23:43;-0.25;68.55
67186;HTU21D;54116;53.518;49.398;2023-03-01T09:26:18;-0.46;72.27
67186;HTU21D;54116;53.518;49.398;2023-03-01T09:28:50;-0.39;72.58
67186;HTU21D;54116;53.518;49.398;2023-03-01T09:31:18;-0.27;69.88
67186;HTU21D;54116;53.518;49.398;2023-03-01T09:33:46;-0.57;72.19
67186;HTU21D;54116;53.518;49.398;2023-03-01T09:36:16;-1.38;68.81
67186;HTU21D;54116;53.518;49.398;2023-03-01T09:38:43;-2.09;71.70
67186;HTU21D;54116;53.518;49.398;2023-03-01T09:41:38;-2.32;73.32
67186;HTU21D;54116;53.518;49.398;2023-03-01T09:46:42;-1.69;73.08
67186;HTU21D;54116;53.518;49.398;2023-03-01T09:49:23;-1.19;72.33
67186;HTU21D;54116;53.518;49.398;2023-03-01T09:52:19;-0.32;67.73
67186;HTU21D;54116;53.518;49.398;2023-03-01T09:54:49;-0.38;64.11
67186;HTU21D;54116;53.518;49.398;2023-03-01T10:03:11;-1.10;66.95
67186;HTU21D;54116;53.518;49.398;2023-03-01T10:06:02;-0.88;65.31
67186;HTU21D;54116;53.518;49.398;2023-03-01T10:11:22;-0.88;71.02
67186;HTU21D;54116;53.518;49.398;2023-03-01T10:14:05;-0.64;70.61
67186;HTU21D;54116;53.518;49.398;2023-03-01T10:16:55;-0.49;73.20
67186;HTU21D;54116;53.518;49.398;2023-03-01T10:19:32;-0.05;72.56
67186;HTU21D;54116;53.518;49.398;2023-03-01T10:22:10;0.95;69.55
67186;HTU21D;54116;53.518;49.398;2023-03-01T10:24:39;0.58;70.49
67186;HTU21D;54116;53.518;49.398;2023-03-01T10:27:14;-0.31;72.61
67186;HTU21D;54116;53.518;49.398;2023-03-01T10:30:37;-0.85;76.74
67186;HTU21D;54116;53.518;49.398;2023-03-01T10:32:37;-0.90;76.66
67186;HTU21D;54116;53.518;49.398;2023-03-01T10:38:12;-1.61;78.57
67186;HTU21D;54116;53.518;49.398;2023-03-01T10:41:05;-2.07;75.02
67186;HTU21D;54116;53.518;49.398;2023-03-01T10:43:52;-2.47;75.54
67186;HTU21D;54116;53.518;49.398;2023-03-01T10:46:36;-2.43;75.21
67186;HTU21D;54116;53.518;49.398;2023-03-01T10:49:19;-2.32;74.08
67186;HTU21D;54116;53.518;49.398;2023-03-01T10:51:48;-2.39;75.84
67186;HTU21D;54116;53.518;49.398;2023-03-01T10:54:30;-2.30;71.16
67186;HTU21D;54116;53.518;49.398;2023-03-01T10:57:01;-2.17;71.97
67186;HTU21D;54116;53.518;49.398;2023-03-01T11:02:16;-2.15;73.23
67186;HTU21D;54116;53.518;49.398;2023-03-01T11:04:59;-2.01;70.34
67186;HTU21D;54116;53.518;49.398;2023-03-01T11:07:26;-2.15;71.46
67186;HTU21D;54116;53.518;49.398;2023-03-01T11:09:52;-2.09;70.07
67186;HTU21D;54116;53.518;49.398;2023-03-01T11:12:20;-2.03;71.22
67186;HTU21D;54116;53.518;49.398;2023-03-01T11:14:54;-1.99;72.08
67186;HTU21D;54116;53.518;49.398;2023-03-01T11:17:28;-1.88;70.75
67186;HTU21D;54116;53.518;49.398;2023-03-01T11:20:02;-2.06;70.32
67186;HTU21D;54116;53.518;49.398;2023-03-01T11:22:31;-1.88;69.61
67186;HTU21D;54116;53.518;49.398;2023-03-01T11:24:59;-1.43;70.86
67186;HTU21D;54116;53.518;49.398;2023-03-01T11:27:30;-1.27;66.91
67186;HTU21D;54116;53.518;49.398;2023-03-01T11:32:27;-0.99;64.98
67186;HTU21D;54116;53.518;49.398;2023-03-01T11:35:17;-1.21;66.38
67186;HTU21D;54116;53.518;49.398;2023-03-01T11:40:26;-1.06;66.08
67186;HTU21D;54116;53.518;49.398;2023-03-01T11:45:52;-0.59;60.83
67186;HTU21D;54116;53.518;49.398;2023-03-01T11:51:38;-0.67;61.26
67186;HTU21D;54116;53.518;49.398;2023-03-01T11:57:01;-0.87;61.54
67186;HTU21D;54116;53.518;49.398;2023-03-01T11:59:51;-1.08;61.03
67186;HTU21D;54116;53.518;49.398;2023-03-01T12:02:49;-1.41;62.61
67186;HTU21D;54116;53.518;49.398;2023-03-01T12:10:19;-1.18;69.58
67186;HTU21D;54116;53.518;49.398;2023-03-01T12:15:42;-0.84;64.37
67186;HTU21D;54116;53.518;49.398;2023-03-01T12:18:13;-0.88;68.81
67186;HTU21D;54116;53.518;49.398;2023-03-01T12:34:23;-1.84;76.02
67186;HTU21D;54116;53.518;49.398;2023-03-01T12:39:36;-2.47;76.65
67186;HTU21D;54116;53.518;49.398;2023-03-01T12:50:21;-2.23;75.96
67186;HTU21D;54116;53.518;49.398;2023-03-01T12:52:56;-1.95;73.67
67186;HTU21D;54116;53.518;49.398;2023-03-01T13:09:16;-2.81;69.19
67186;HTU21D;54116;53.518;49.398;2023-03-01T13:11:43;-3.06;71.29
67186;HTU21D;54116;53.518;49.398;2023-03-01T13:16:54;-3.13;72.05
67186;HTU21D;54116;53.518;49.398;2023-03-01T13:19:24;-3.22;73.56
67186;HTU21D;54116;53.518;49.398;2023-03-01T13:21:52;-3.45;71.43
67186;HTU21D;54116;53.518;49.398;2023-03-01T13:24:33;-3.62;70.78
67186;HTU21D;54116;53.518;49.398;2023-03-01T13:29:50;-3.81;74.41
67186;HTU21D;54116;53.518;49.398;2023-03-01T13:32:34;-3.92;73.37
67186;HTU21D;54116;53.518;49.398;2023-03-01T13:37:43;-4.04;73.77
67186;HTU21D;54116;53.518;49.398;2023-03-01T13:42:57;-4.14;71.30
67186;HTU21D;54116;53.518;49.398;2023-03-01T13:45:43;-4.19;71.60
67186;HTU21D;54116;53.518;49.398;2023-03-01T13:48:17;-4.21;73.15
67186;HTU21D;54116;53.518;49.398;2023-03-01T13:50:51;-4.21;75.20
67186;HTU21D;54116;53.518;49.398;2023-03-01T13:53:22;-4.16;74.51
67186;HTU21D;54116;53.518;49.398;2023-03-01T13:56:11;-4.15;70.97
67186;HTU21D;54116;53.518;49.398;2023-03-01T13:58:51;-4.15;71.60
67186;HTU21D;54116;53.518;49.398;2023-03-01T14:01:25;-4.21;72.78
67186;HTU21D;54116;53.518;49.398;2023-03-01T14:03:51;-4.23;72.41
67186;HTU21D;54116;53.518;49.398;2023-03-01T14:06:24;-4.22;71.80
67186;HTU21D;54116;53.518;49.398;2023-03-01T14:09:10;-4.25;73.65
67186;HTU21D;54116;53.518;49.398;2023-03-01T14:11:53;-4.29;74.48
67186;HTU21D;54116;53.518;49.398;2023-03-01T14:19:27;-4.23;72.90
67186;HTU21D;54116;53.518;49.398;2023-03-01T14:24:48;-4.26;72.41
67186;HTU21D;54116;53.518;49.398;2023-03-01T14:27:15;-4.29;72.74
67186;HTU21D;54116;53.518;49.398;2023-03-01T14:29:42;-4.37;75.94
67186;HTU21D;54116;53.518;49.398;2023-03-01T14:32:10;-4.44;74.63
67186;HTU21D;54116;53.518;49.398;2023-03-01T14:34:36;-4.46;73.64
67186;HTU21D;54116;53.518;49.398;2023-03-01T14:39:43;-4.64;76.99
67186;HTU21D;54116;53.518;49.398;2023-03-01T14:42:10;-4.76;77.02
67186;HTU21D;54116;53.518;49.398;2023-03-01T14:44:37;-4.83;77.99
67186;HTU21D;54116;53.518;49.398;2023-03-01T14:47:05;-4.88;77.80
67186;HTU21D;54116;53.518;49.398;2023-03-01T14:49:32;-4.84;75.83
67186;HTU21D;54116;53.518;49.398;2023-03-01T14:54:39;-4.78;77.00
67186;HTU21D;54116;53.518;49.398;2023-03-01T14:57:18;-4.79;78.08
67186;HTU21D;54116;53.518;49.398;2023-03-01T14:59:48;-4.80;77.12
67186;HTU21D;54116;53.518;49.398;2023-03-01T15:02:19;-4.81;77.49
67186;HTU21D;54116;53.518;49.398;2023-03-01T15:04:48;-4.75;75.69
67186;HTU21D;54116;53.518;49.398;2023-03-01T15:07:15;-4.73;77.14
67186;HTU21D;54116;53.518;49.398;2023-03-01T15:09:42;-4.78;77.60
67186;HTU21D;54116;53.518;49.398;2023-03-01T15:12:34;-4.83;76.76
67186;HTU21D;54116;53.518;49.398;2023-03-01T15:16:01;-4.91;78.02
67186;HTU21D;54116;53.518;49.398;2023-03-01T15:20:42;-5.10;78.72
67186;HTU21D;54116;53.518;49.398;2023-03-01T15:23:28;-5.14;81.42
67186;HTU21D;54116;53.518;49.398;2023-03-01T15:25:55;-5.17;81.41
67186;HTU21D;54116;53.518;49.398;2023-03-01T15:28:31;-5.20;82.24
67186;HTU21D;54116;53.518;49.398;2023-03-01T15:31:21;-5.16;83.32
67186;HTU21D;54116;53.518;49.398;2023-03-01T15:33:48;-5.23;83.00
67186;HTU21D;54116;53.518;49.398;2023-03-01T15:36:47;-5.28;83.52
67186;HTU21D;54116;53.518;49.398;2023-03-01T15:42:10;-5.28;83.03
67186;HTU21D;54116;53.518;49.398;2023-03-01T15:44:41;-5.25;83.52
67186;HTU21D;54116;53.518;49.398;2023-03-01T15:47:27;-5.16;84.26
67186;HTU21D;54116;53.518;49.398;2023-03-01T15:49:55;-5.09;84.01
67186;HTU21D;54116;53.518;49.398;2023-03-01T15:52:34;-5.01;84.15
67186;HTU21D;54116;53.518;49.398;2023-03-01T15:55:14;-4.99;84.43
67186;HTU21D;54116;53.518;49.398;2023-03-01T15:57:40;-4.99;85.71
67186;HTU21D;54116;53.518;49.398;2023-03-01T16:00:10;-4.99;86.32
67186;HTU21D;54116;53.518;49.398;2023-03-01T16:02:41;-5.01;85.84
67186;HTU21D;54116;53.518;49.398;2023-03-01T16:05:28;-5.04;86.43
67186;HTU21D;54116;53.518;49.398;2023-03-01T16:07:56;-5.14;86.08
67186;HTU21D;54116;53.518;49.398;2023-03-01T16:10:23;-5.20;86.63
67186;HTU21D;54116;53.518;49.398;2023-03-01T16:12:50;-5.26;86.99
67186;HTU21D;54116;53.518;49.398;2023-03-01T16:15:20;-5.31;87.24
67186;HTU21D;54116;53.518;49.398;2023-03-01T16:17:47;-5.35;87.60
67186;HTU21D;54116;53.518;49.398;2023-03-01T16:20:14;-5.38;88.01
67186;HTU21D;54116;53.518;49.398;2023-03-01T16:22:45;-5.40;88.33
67186;HTU21D;54116;53.518;49.398;2023-03-01T16:25:17;-5.41;88.75
67186;HTU21D;54116;53.518;49.398;2023-03-01T16:27:47;-5.42;88.09
67186;HTU21D;54116;53.518;49.398;2023-03-01T16:30:17;-5.40;88.51
67186;HTU21D;54116;53.518;49.398;2023-03-01T16:32:47;-5.41;87.99
67186;HTU21D;54116;53.518;49.398;2023-03-01T16:35:16;-5.41;88.53
67186;HTU21D;54116;53.518;49.398;2023-03-01T16:37:44;-5.44;88.11
67186;HTU21D;54116;53.518;49.398;2023-03-01T16:40:27;-5.46;88.06
67186;HTU21D;54116;53.518;49.398;2023-03-01T16:42:55;-5.46;87.76
67186;HTU21D;54116;53.518;49.398;2023-03-01T16:45:26;-5.47;88.62
67186;HTU21D;54116;53.518;49.398;2023-03-01T16:47:52;-5.45;88.33
67186;HTU21D;54116;53.518;49.398;2023-03-01T16:50:19;-5.47;86.32
67186;HTU21D;54116;53.518;49.398;2023-03-01T16:52:45;-5.52;87.05
67186;HTU21D;54116;53.518;49.398;2023-03-01T16:55:11;-5.53;87.04
67186;HTU21D;54116;53.518;49.398;2023-03-01T16:57:38;-5.50;86.76
67186;HTU21D;54116;53.518;49.398;2023-03-01T17:00:06;-5.50;85.70
67186;HTU21D;54116;53.518;49.398;2023-03-01T17:02:34;-5.53;86.00
67186;HTU21D;54116;53.518;49.398;2023-03-01T17:05:01;-5.53;85.74
67186;HTU21D;54116;53.518;49.398;2023-03-01T17:07:29;-5.52;84.55
67186;HTU21D;54116;53.518;49.398;2023-03-01T17:10:03;-5.52;85.35
67186;HTU21D;54116;53.518;49.398;2023-03-01T17:12:30;-5.50;85.55
67186;HTU21D;54116;53.518;49.398;2023-03-01T17:14:57;-5.50;86.51